Decoded Metar for KRST (ROCHESTER in MN, USA) (IATA:RST) | Meteo·Mobile Aviation Weather
aviador You're here:

KRST Decoded Metar

ROCHESTER in MN, USA
Report Time2019-10-18 12:54:00
UTC Time2019-10-18 14:00:13
Flight Rules vfr VFR
Wind150° at 13 Gusting to 23 kt
W.Decomp.*RWY 13: 12.3 kt HW 4.2 kt RCW
RWY 20: 8.2 kt HW 10.1 kt LCW
Visibility9999 m
Phenomena:N/A
Clouds:N/A
Expected CloudBase > 1,600 ft AGL from Temp-Dew spread
CeilingNone
Temp06°C (ISA -6)
Dew Point02°C (76% RH)
AAT-0.3°C
QNH1010 hPa
Density Alt758 ft
Elevation1,322 ft
Report Wrong Elevation
Raw Report
KRST 181254Z 15013G23KT 10SM CLR 06/02 A2983 RMK AO2 SLP109
T00560022=

Extra information for KRST:More info

Metar Taf Metar & Taf Last 4 Metars F.Rules Stats Wind Profile Meteogram Temp Stats Airport Information Weather charts Add Link Nearby VenuesMetar ALERT Operation Metar Decoded Social comments

AIRNAV info for KRST